Terminal Aerodrome Forecast
Issued by NWS Des Moines, IA

Home | Current Version | Previous Version | Text Only | Print | Product List | Glossary On
Versions: 1 2 3 4 5 6 7 8 9 10 11 12 13 14 15 16 17 18 19 20 21 22 23 24 25 26 27 28 29 30 31 32 33 34 35 36
000
FTUS43 KDMX 200520
TAFDSM
TAF
KDSM 200520Z 2006/2106 VRB03KT P6SM SCT150
     FM200900 VRB02KT P6SM VCSH BKN100
     FM201100 VRB04KT 6SM BR VCTS SCT040CB BKN070
     FM201400 16008KT P6SM BKN100
     FM210200 14007KT P6SM SCT080 BKN150=

USA.gov is the U.S. government's official web portal to all federal, state and local government web resources and services.